Time,TemperatureF,DewpointF,PressureIn,WindDirection,WindDirectionDegrees,WindSpeedMPH,WindSpeedGustMPH,Humidity,HourlyPrecipIn,Conditions,Clouds,dailyrainin,SoftwareType,DateUTC
2013-11-30 00:01:00,20.8,3.8,30.21,North,0,0.0,0.0,47,0.00,,---,0.00,VWS V15.00,2013-11-30 05:01:00,
2013-11-30 00:06:00,20.3,4.6,30.21,North,0,0.0,0.0,50,0.00,,---,0.00,VWS V15.00,2013-11-30 05:06:00,
2013-11-30 00:11:00,20.3,4.6,30.21,North,0,0.0,0.0,50,0.00,,---,0.00,VWS V15.00,2013-11-30 05:11:00,
2013-11-30 00:16:00,20.3,5.5,30.21,North,6,0.0,0.0,52,0.00,,---,0.00,VWS V15.00,2013-11-30 05:16:00,
2013-11-30 00:21:00,20.3,5.5,30.21,North,6,0.0,0.0,52,0.00,,---,0.00,VWS V15.00,2013-11-30 05:21:00,
2013-11-30 00:26:00,20.3,5.5,30.21,North,6,0.0,0.0,52,0.00,,---,0.00,VWS V15.00,2013-11-30 05:26:00,
2013-11-30 00:31:00,20.3,4.6,30.21,North,6,0.0,0.0,50,0.00,,---,0.00,VWS V15.00,2013-11-30 05:31:00,
2013-11-30 00:36:00,20.3,3.3,30.21,NNE,19,0.0,0.0,47,0.00,,---,0.00,VWS V15.00,2013-11-30 05:36:00,
2013-11-30 00:41:00,20.1,3.1,30.21,NNE,19,0.0,0.0,47,0.00,,---,0.00,VWS V15.00,2013-11-30 05:41:00,
2013-11-30 00:46:00,20.3,3.3,30.21,NNE,19,0.0,0.0,47,0.00,,---,0.00,VWS V15.00,2013-11-30 05:46:00,
2013-11-30 00:51:00,20.1,3.1,30.21,NNE,19,0.0,0.0,47,0.00,,---,0.00,VWS V15.00,2013-11-30 05:51:00,
2013-11-30 00:56:00,20.1,2.2,30.21,NNE,19,5.4,5.4,45,0.00,,---,0.00,VWS V15.00,2013-11-30 05:56:00,
2013-11-30 01:01:00,20.1,2.2,30.21,NNE,19,0.0,0.0,45,0.00,,---,0.00,VWS V15.00,2013-11-30 06:01:00,
2013-11-30 01:06:00,20.1,2.2,30.21,NNE,20,0.0,0.0,45,0.00,,---,0.00,VWS V15.00,2013-11-30 06:06:00,
2013-11-30 01:11:00,20.1,2.2,30.21,NNE,20,0.0,0.0,45,0.00,,---,0.00,VWS V15.00,2013-11-30 06:11:00,
2013-11-30 01:16:00,19.8,1.9,30.21,NNE,20,0.0,4.5,45,0.00,,---,0.00,VWS V15.00,2013-11-30 06:16:00,
2013-11-30 01:21:00,19.6,1.7,30.21,NNE,20,0.0,0.0,45,0.00,,---,0.00,VWS V15.00,2013-11-30 06:21:00,
2013-11-30 01:26:00,19.4,1.5,30.21,NNE,20,0.0,0.0,45,0.00,,---,0.00,VWS V15.00,2013-11-30 06:26:00,
2013-11-30 01:31:00,19.2,1.4,30.21,NNE,20,0.0,0.0,45,0.00,,---,0.00,VWS V15.00,2013-11-30 06:31:00,
2013-11-30 01:36:00,19.0,1.2,30.21,NNE,20,0.0,0.0,45,0.00,,---,0.00,VWS V15.00,2013-11-30 06:36:00,
2013-11-30 01:41:00,19.0,1.2,30.21,NNE,20,0.0,0.0,45,0.00,,---,0.00,VWS V15.00,2013-11-30 06:41:00,
2013-11-30 01:46:00,18.9,1.0,30.21,NNE,20,0.0,0.0,45,0.00,,---,0.00,VWS V15.00,2013-11-30 06:46:00,
2013-11-30 01:51:00,18.9,1.0,30.21,NNE,20,0.0,0.0,45,0.00,,---,0.00,VWS V15.00,2013-11-30 06:51:00,
2013-11-30 01:56:00,18.7,0.9,30.21,North,11,0.0,0.0,45,0.00,,---,0.00,VWS V15.00,2013-11-30 06:56:00,
2013-11-30 02:01:00,18.7,2.3,30.24,North,11,0.0,0.0,48,0.00,,---,0.00,VWS V15.00,2013-11-30 07:01:00,
2013-11-30 02:06:00,18.7,0.9,30.24,NNE,32,0.0,0.0,45,0.00,,---,0.00,VWS V15.00,2013-11-30 07:06:00,
2013-11-30 02:11:00,18.7,0.9,30.24,NNE,32,0.0,0.0,45,0.00,,---,0.00,VWS V15.00,2013-11-30 07:11:00,
2013-11-30 02:16:00,18.7,0.9,30.24,NNE,32,0.0,0.0,45,0.00,,---,0.00,VWS V15.00,2013-11-30 07:16:00,
2013-11-30 02:21:00,18.7,0.9,30.24,North,7,6.3,7.2,45,0.00,,---,0.00,VWS V15.00,2013-11-30 07:21:00,
2013-11-30 02:26:00,18.7,0.9,30.24,NNE,12,7.2,7.2,45,0.00,,---,0.00,VWS V15.00,2013-11-30 07:26:00,
2013-11-30 02:31:00,18.7,0.9,30.24,North,353,0.0,0.0,45,0.00,,---,0.00,VWS V15.00,2013-11-30 07:31:00,
2013-11-30 02:36:00,18.7,0.9,30.24,NNE,19,0.0,0.0,45,0.00,,---,0.00,VWS V15.00,2013-11-30 07:36:00,
2013-11-30 02:41:00,18.5,0.7,30.24,NNE,27,0.0,0.0,45,0.00,,---,0.00,VWS V15.00,2013-11-30 07:41:00,
2013-11-30 02:46:00,18.7,0.9,30.24,NE,36,0.0,0.0,45,0.00,,---,0.00,VWS V15.00,2013-11-30 07:46:00,
2013-11-30 02:51:00,18.9,1.0,30.24,NE,36,0.0,0.0,45,0.00,,---,0.00,VWS V15.00,2013-11-30 07:51:00,
2013-11-30 02:56:00,18.7,0.9,30.24,NNE,20,6.3,6.3,45,0.00,,---,0.00,VWS V15.00,2013-11-30 07:56:00,
2013-11-30 03:01:00,18.7,0.9,30.24,NE,35,0.0,0.0,45,0.00,,---,0.00,VWS V15.00,2013-11-30 08:01:00,
2013-11-30 03:06:00,18.5,0.7,30.24,NE,35,0.0,0.0,45,0.00,,---,0.00,VWS V15.00,2013-11-30 08:06:00,
2013-11-30 03:11:00,18.5,0.7,30.24,NNE,30,6.3,7.2,45,0.00,,---,0.00,VWS V15.00,2013-11-30 08:11:00,
2013-11-30 03:16:00,18.3,0.6,30.24,North,2,5.4,5.4,45,0.00,,---,0.00,VWS V15.00,2013-11-30 08:16:00,
2013-11-30 03:21:00,18.1,0.4,30.21,North,5,6.3,6.3,45,0.00,,---,0.00,VWS V15.00,2013-11-30 08:21:00,
2013-11-30 03:26:00,18.1,0.4,30.21,NNE,21,4.5,6.3,45,0.00,,---,0.00,VWS V15.00,2013-11-30 08:26:00,
2013-11-30 03:31:00,17.8,0.1,30.21,NNE,26,0.0,0.0,45,0.00,,---,0.00,VWS V15.00,2013-11-30 08:31:00,
2013-11-30 03:36:00,17.8,0.1,30.21,NNE,26,0.0,0.0,45,0.00,,---,0.00,VWS V15.00,2013-11-30 08:36:00,
2013-11-30 03:41:00,17.6,0.3,30.21,NNE,26,0.0,0.0,46,0.00,,---,0.00,VWS V15.00,2013-11-30 08:41:00,
2013-11-30 03:46:00,17.4,0.2,30.21,NNE,26,6.3,6.3,46,0.00,,---,0.00,VWS V15.00,2013-11-30 08:46:00,
2013-11-30 03:51:00,17.4,0.2,30.21,NNE,26,0.0,0.0,46,0.00,,---,0.00,VWS V15.00,2013-11-30 08:51:00,
2013-11-30 03:56:00,17.1,-0.1,30.21,NNE,26,0.0,0.0,46,0.00,,---,0.00,VWS V15.00,2013-11-30 08:56:00,
2013-11-30 04:01:00,17.1,-0.1,30.21,NNE,27,0.0,0.0,46,0.00,,---,0.00,VWS V15.00,2013-11-30 09:01:00,
2013-11-30 04:06:00,17.1,-0.1,30.21,NNE,27,0.0,0.0,46,0.00,,---,0.00,VWS V15.00,2013-11-30 09:06:00,
2013-11-30 04:11:00,17.1,-0.1,30.21,NNE,29,8.1,8.1,46,0.00,,---,0.00,VWS V15.00,2013-11-30 09:11:00,
2013-11-30 04:16:00,16.9,-0.3,30.24,NNE,27,0.0,0.0,46,0.00,,---,0.00,VWS V15.00,2013-11-30 09:16:00,
2013-11-30 04:21:00,16.7,-0.5,30.24,North,357,0.0,0.0,46,0.00,,---,0.00,VWS V15.00,2013-11-30 09:21:00,
2013-11-30 04:26:00,16.7,-0.5,30.24,NNE,32,5.4,5.4,46,0.00,,---,0.00,VWS V15.00,2013-11-30 09:26:00,
2013-11-30 04:31:00,16.7,0.4,30.24,NNE,30,4.5,4.5,48,0.00,,---,0.00,VWS V15.00,2013-11-30 09:31:00,
2013-11-30 04:36:00,16.5,0.3,30.24,NNE,20,6.3,6.3,48,0.00,,---,0.00,VWS V15.00,2013-11-30 09:36:00,
2013-11-30 04:41:00,16.5,0.3,30.24,NNE,28,6.3,6.3,48,0.00,,---,0.00,VWS V15.00,2013-11-30 09:41:00,
2013-11-30 04:46:00,16.5,0.3,30.24,NE,44,0.0,0.0,48,0.00,,---,0.00,VWS V15.00,2013-11-30 09:46:00,
2013-11-30 04:51:00,16.2,-0.1,30.24,NNE,30,6.3,6.3,48,0.00,,---,0.00,VWS V15.00,2013-11-30 09:51:00,
2013-11-30 04:56:00,16.2,1.2,30.24,NNE,30,4.5,4.5,51,0.00,,---,0.00,VWS V15.00,2013-11-30 09:56:00,
2013-11-30 05:01:00,16.0,1.1,30.24,NNE,30,0.0,0.0,51,0.00,,---,0.00,VWS V15.00,2013-11-30 10:01:00,
2013-11-30 05:06:00,16.0,1.1,30.24,NNE,30,4.5,4.5,51,0.00,,---,0.00,VWS V15.00,2013-11-30 10:06:00,
2013-11-30 05:11:00,15.8,0.9,30.24,NNE,30,5.4,5.4,51,0.00,,---,0.00,VWS V15.00,2013-11-30 10:11:00,
2013-11-30 05:16:00,15.8,0.9,30.24,NNE,29,8.1,8.1,51,0.00,,---,0.00,VWS V15.00,2013-11-30 10:16:00,
2013-11-30 05:21:00,15.8,0.9,30.24,North,1,0.0,0.0,51,0.00,,---,0.00,VWS V15.00,2013-11-30 10:21:00,
2013-11-30 05:26:00,15.8,0.9,30.24,North,1,0.0,0.0,51,0.00,,---,0.00,VWS V15.00,2013-11-30 10:26:00,
2013-11-30 05:31:00,15.8,0.9,30.24,North,1,0.0,0.0,51,0.00,,---,0.00,VWS V15.00,2013-11-30 10:31:00,
2013-11-30 05:36:00,15.8,0.9,30.24,North,1,0.0,0.0,51,0.00,,---,0.00,VWS V15.00,2013-11-30 10:36:00,
2013-11-30 05:41:00,15.4,0.6,30.24,North,1,0.0,0.0,51,0.00,,---,0.00,VWS V15.00,2013-11-30 10:41:00,
2013-11-30 05:46:00,15.4,0.6,30.24,North,1,0.0,0.0,51,0.00,,---,0.00,VWS V15.00,2013-11-30 10:46:00,
2013-11-30 05:51:00,15.3,1.6,30.24,North,1,0.0,0.0,54,0.00,,---,0.00,VWS V15.00,2013-11-30 10:51:00,
2013-11-30 05:56:00,15.3,1.6,30.24,North,1,0.0,0.0,54,0.00,,---,0.00,VWS V15.00,2013-11-30 10:56:00,
2013-11-30 06:01:00,15.1,1.4,30.24,North,1,0.0,0.0,54,0.00,,---,0.00,VWS V15.00,2013-11-30 11:01:00,
2013-11-30 06:06:00,15.1,1.4,30.24,North,1,0.0,0.0,54,0.00,,---,0.00,VWS V15.00,2013-11-30 11:06:00,
2013-11-30 06:10:00,15.1,1.4,30.24,North,1,0.0,0.0,54,0.00,,---,0.00,VWS V15.00,2013-11-30 11:10:00,
2013-11-30 06:15:00,15.1,1.4,30.24,North,1,0.0,0.0,54,0.00,,---,0.00,VWS V15.00,2013-11-30 11:15:00,
2013-11-30 06:20:00,15.1,1.4,30.24,North,1,0.0,0.0,54,0.00,,---,0.00,VWS V15.00,2013-11-30 11:20:00,
2013-11-30 06:25:00,15.1,1.4,30.24,North,1,0.0,0.0,54,0.00,,---,0.00,VWS V15.00,2013-11-30 11:25:00,
2013-11-30 06:30:00,14.9,1.7,30.24,North,1,0.0,0.0,55,0.00,,---,0.00,VWS V15.00,2013-11-30 11:30:00,
2013-11-30 06:35:00,14.9,1.7,30.24,North,1,0.0,0.0,55,0.00,,---,0.00,VWS V15.00,2013-11-30 11:35:00,
2013-11-30 06:40:00,14.5,1.3,30.24,North,2,6.3,6.3,55,0.00,,---,0.00,VWS V15.00,2013-11-30 11:40:00,
2013-11-30 06:45:00,14.7,1.5,30.24,North,4,6.3,6.3,55,0.00,,---,0.00,VWS V15.00,2013-11-30 11:45:00,
2013-11-30 06:50:00,14.7,1.5,30.24,North,4,6.3,6.3,55,0.00,,---,0.00,VWS V15.00,2013-11-30 11:50:00,
2013-11-30 06:55:00,14.9,1.7,30.24,North,11,7.2,7.2,55,0.00,,---,0.00,VWS V15.00,2013-11-30 11:55:00,
2013-11-30 07:01:00,14.9,2.0,30.24,North,0,8.1,8.1,56,0.00,,---,0.00,VWS V15.00,2013-11-30 12:01:00,
2013-11-30 07:06:00,15.1,2.2,30.24,NNE,26,5.4,6.3,56,0.00,,---,0.00,VWS V15.00,2013-11-30 12:06:00,
2013-11-30 07:11:00,15.1,2.2,30.24,NNE,14,7.2,7.2,56,0.00,,---,0.00,VWS V15.00,2013-11-30 12:11:00,
2013-11-30 07:16:00,15.1,2.2,30.24,North,4,7.2,7.2,56,0.00,,---,0.00,VWS V15.00,2013-11-30 12:16:00,
2013-11-30 07:21:00,15.3,2.4,30.24,North,3,6.3,6.3,56,0.00,,---,0.00,VWS V15.00,2013-11-30 12:21:00,
2013-11-30 07:26:00,15.3,2.4,30.24,North,2,9.8,9.8,56,0.00,,---,0.00,VWS V15.00,2013-11-30 12:26:00,
2013-11-30 07:31:00,15.4,2.6,30.24,NE,38,9.8,9.8,56,0.00,,---,0.00,VWS V15.00,2013-11-30 12:31:00,
2013-11-30 07:36:00,15.4,2.6,30.24,North,11,8.1,8.1,56,0.00,,---,0.00,VWS V15.00,2013-11-30 12:36:00,
2013-11-30 07:41:00,15.8,2.9,30.24,North,11,5.4,5.4,56,0.00,,---,0.00,VWS V15.00,2013-11-30 12:41:00,
2013-11-30 07:46:00,16.5,3.2,30.24,NNE,32,10.7,10.7,55,0.00,,---,0.00,VWS V15.00,2013-11-30 12:46:00,
2013-11-30 07:51:00,16.5,3.2,30.24,NE,34,7.2,7.2,55,0.00,,---,0.00,VWS V15.00,2013-11-30 12:51:00,
2013-11-30 07:56:00,16.5,2.8,30.24,NNE,28,10.7,10.7,54,0.00,,---,0.00,VWS V15.00,2013-11-30 12:56:00,
2013-11-30 08:01:00,16.7,3.0,30.24,NE,44,10.7,10.7,54,0.00,,---,0.00,VWS V15.00,2013-11-30 13:01:00,
2013-11-30 08:06:00,17.1,3.3,30.24,NNE,21,12.5,12.5,54,0.00,,---,0.00,VWS V15.00,2013-11-30 13:06:00,
2013-11-30 08:11:00,17.2,3.5,30.24,NE,35,6.3,6.3,54,0.00,,---,0.00,VWS V15.00,2013-11-30 13:11:00,
2013-11-30 08:15:00,17.4,3.6,30.24,NE,46,11.6,11.6,54,0.00,,---,0.00,VWS V15.00,2013-11-30 13:15:00,
2013-11-30 08:20:00,17.8,3.6,30.24,NE,45,6.3,8.1,53,0.00,,---,0.00,VWS V15.00,2013-11-30 13:20:00,
2013-11-30 08:25:00,18.3,2.8,30.24,NNE,24,6.3,6.3,50,0.00,,---,0.00,VWS V15.00,2013-11-30 13:25:00,
2013-11-30 08:30:00,18.7,3.1,30.24,NE,46,8.1,8.1,50,0.00,,---,0.00,VWS V15.00,2013-11-30 13:30:00,
2013-11-30 08:35:00,19.0,3.5,30.24,NNE,21,7.2,7.2,50,0.00,,---,0.00,VWS V15.00,2013-11-30 13:35:00,
2013-11-30 08:40:00,19.0,3.5,30.24,North,0,0.0,0.0,50,0.00,,---,0.00,VWS V15.00,2013-11-30 13:40:00,
2013-11-30 08:45:00,20.3,3.3,30.24,NNE,28,8.1,8.1,47,0.00,,---,0.00,VWS V15.00,2013-11-30 13:45:00,
2013-11-30 08:50:00,21.0,4.0,30.24,NE,54,7.2,7.2,47,0.00,,---,0.00,VWS V15.00,2013-11-30 13:50:00,
2013-11-30 08:55:00,21.0,4.0,30.24,NNE,29,8.1,8.1,47,0.00,,---,0.00,VWS V15.00,2013-11-30 13:55:00,
2013-11-30 09:00:00,22.1,4.0,30.24,NE,46,10.7,10.7,45,0.00,,---,0.00,VWS V15.00,2013-11-30 14:00:00,
2013-11-30 09:05:00,22.1,4.0,30.24,NNE,24,6.3,8.1,45,0.00,,---,0.00,VWS V15.00,2013-11-30 14:05:00,
2013-11-30 09:11:00,23.4,4.7,30.24,North,0,6.3,6.3,44,0.00,,---,0.00,VWS V15.00,2013-11-30 14:11:00,
2013-11-30 09:16:00,24.1,5.3,30.24,North,0,8.1,8.1,44,0.00,,---,0.00,VWS V15.00,2013-11-30 14:16:00,
2013-11-30 09:21:00,25.0,6.2,30.24,North,0,6.3,6.3,44,0.00,,---,0.00,VWS V15.00,2013-11-30 14:21:00,
2013-11-30 09:26:00,25.2,6.3,30.24,NE,34,0.0,0.0,44,0.00,,---,0.00,VWS V15.00,2013-11-30 14:26:00,
2013-11-30 09:31:00,25.5,6.7,30.24,NNE,12,4.5,4.5,44,0.00,,---,0.00,VWS V15.00,2013-11-30 14:31:00,
2013-11-30 09:36:00,26.6,7.6,30.24,NNW,337,8.1,8.1,44,0.00,,---,0.00,VWS V15.00,2013-11-30 14:36:00,
2013-11-30 09:41:00,27.7,8.1,30.24,NNW,345,6.3,6.3,43,0.00,,---,0.00,VWS V15.00,2013-11-30 14:41:00,
2013-11-30 09:46:00,27.7,8.1,30.24,NNE,33,0.0,0.0,43,0.00,,---,0.00,VWS V15.00,2013-11-30 14:46:00,
2013-11-30 09:51:00,29.7,9.9,30.24,NNW,342,10.7,10.7,43,0.00,,---,0.00,VWS V15.00,2013-11-30 14:51:00,
2013-11-30 09:55:00,31.1,11.2,30.24,North,6,0.0,0.0,43,0.00,,---,0.00,VWS V15.00,2013-11-30 14:55:00,
2013-11-30 10:00:00,30.6,10.7,30.24,NE,46,8.1,8.1,43,0.00,,---,0.00,VWS V15.00,2013-11-30 15:00:00,
2013-11-30 10:05:00,30.7,10.9,30.24,North,0,0.0,0.0,43,0.00,,---,0.00,VWS V15.00,2013-11-30 15:05:00,
2013-11-30 10:10:00,30.6,10.7,30.24,North,0,0.0,0.0,43,0.00,,---,0.00,VWS V15.00,2013-11-30 15:10:00,
2013-11-30 10:15:00,33.3,13.2,30.24,NNE,14,0.0,0.0,43,0.00,,---,0.00,VWS V15.00,2013-11-30 15:15:00,
2013-11-30 10:20:00,34.7,14.0,30.24,NNW,345,5.4,5.4,42,0.00,,---,0.00,VWS V15.00,2013-11-30 15:20:00,
2013-11-30 10:25:00,35.6,14.8,30.24,NE,36,0.0,0.0,42,0.00,,---,0.00,VWS V15.00,2013-11-30 15:25:00,
2013-11-30 10:30:00,35.6,14.8,30.24,NNE,21,6.3,6.3,42,0.00,,---,0.00,VWS V15.00,2013-11-30 15:30:00,
2013-11-30 10:35:00,35.4,14.6,30.24,NNE,20,0.0,0.0,42,0.00,,---,0.00,VWS V15.00,2013-11-30 15:35:00,
2013-11-30 10:40:00,37.0,16.1,30.24,NE,42,0.0,0.0,42,0.00,,---,0.00,VWS V15.00,2013-11-30 15:40:00,
2013-11-30 10:45:00,37.8,16.2,30.21,NE,42,0.0,0.0,41,0.00,,---,0.00,VWS V15.00,2013-11-30 15:45:00,
2013-11-30 10:50:00,36.9,15.9,30.21,North,0,11.6,11.6,42,0.00,,---,0.00,VWS V15.00,2013-11-30 15:50:00,
2013-11-30 10:55:00,37.2,16.3,30.21,North,357,0.0,0.0,42,0.00,,---,0.00,VWS V15.00,2013-11-30 15:55:00,
2013-11-30 11:00:00,37.2,16.3,30.21,North,0,0.0,0.0,42,0.00,,---,0.00,VWS V15.00,2013-11-30 16:00:00,
2013-11-30 11:05:00,39.2,17.5,30.21,North,0,0.0,0.0,41,0.00,,---,0.00,VWS V15.00,2013-11-30 16:05:00,
2013-11-30 11:10:00,41.4,19.5,30.21,NE,44,6.3,6.3,41,0.00,,---,0.00,VWS V15.00,2013-11-30 16:10:00,
2013-11-30 11:15:00,42.4,20.4,30.21,NNE,19,0.0,0.0,41,0.00,,---,0.00,VWS V15.00,2013-11-30 16:15:00,
2013-11-30 11:20:00,42.4,20.4,30.21,NNE,19,0.0,0.0,41,0.00,,---,0.00,VWS V15.00,2013-11-30 16:20:00,
2013-11-30 11:25:00,45.1,22.3,30.21,South,171,0.0,0.0,40,0.00,,---,0.00,VWS V15.00,2013-11-30 16:25:00,
2013-11-30 11:30:00,46.0,23.1,30.18,SSE,158,6.3,6.3,40,0.00,,---,0.00,VWS V15.00,2013-11-30 16:30:00,
2013-11-30 11:35:00,43.7,21.0,30.18,SSE,158,6.3,6.3,40,0.00,,---,0.00,VWS V15.00,2013-11-30 16:35:00,
2013-11-30 11:40:00,42.8,20.2,30.18,South,190,7.2,7.2,40,0.00,,---,0.00,VWS V15.00,2013-11-30 16:40:00,
2013-11-30 11:45:00,41.9,19.9,30.18,SW,215,0.0,0.0,41,0.00,,---,0.00,VWS V15.00,2013-11-30 16:45:00,
2013-11-30 11:50:00,41.7,19.8,30.18,West,259,0.0,0.0,41,0.00,,---,0.00,VWS V15.00,2013-11-30 16:50:00,
2013-11-30 11:55:00,44.2,21.5,30.18,SE,127,0.0,0.0,40,0.00,,---,0.00,VWS V15.00,2013-11-30 16:55:00,
2013-11-30 12:00:00,45.7,22.8,30.18,ENE,59,0.0,0.0,40,0.00,,---,0.00,VWS V15.00,2013-11-30 17:00:00,
2013-11-30 12:05:00,45.5,22.6,30.18,SSW,196,7.2,7.2,40,0.00,,---,0.00,VWS V15.00,2013-11-30 17:05:00,
2013-11-30 12:10:00,45.5,22.6,30.18,SSW,203,0.0,0.0,40,0.00,,---,0.00,VWS V15.00,2013-11-30 17:10:00,
2013-11-30 12:15:00,42.6,20.6,30.18,SSE,159,8.9,8.9,41,0.00,,---,0.00,VWS V15.00,2013-11-30 17:15:00,
2013-11-30 12:20:00,42.4,20.4,30.18,SSW,208,0.0,0.0,41,0.00,,---,0.00,VWS V15.00,2013-11-30 17:20:00,
2013-11-30 12:25:00,41.7,19.8,30.18,ESE,122,0.0,0.0,41,0.00,,---,0.00,VWS V15.00,2013-11-30 17:25:00,
2013-11-30 12:30:00,39.7,18.0,30.18,East,83,8.1,8.1,41,0.00,,---,0.00,VWS V15.00,2013-11-30 17:30:00,
2013-11-30 12:35:00,38.8,17.2,30.15,SW,220,6.3,6.3,41,0.00,,---,0.00,VWS V15.00,2013-11-30 17:35:00,
2013-11-30 12:40:00,36.3,15.4,30.15,SW,221,0.0,0.0,42,0.00,,---,0.00,VWS V15.00,2013-11-30 17:40:00,
2013-11-30 12:45:00,36.1,15.3,30.15,SW,230,7.2,7.2,42,0.00,,---,0.00,VWS V15.00,2013-11-30 17:45:00,
2013-11-30 12:50:00,35.4,14.6,30.15,SSE,154,5.4,5.4,42,0.00,,---,0.00,VWS V15.00,2013-11-30 17:50:00,
2013-11-30 12:55:00,35.2,14.5,30.15,East,97,0.0,0.0,42,0.00,,---,0.00,VWS V15.00,2013-11-30 17:55:00,
2013-11-30 13:00:00,35.4,14.6,30.12,ENE,61,0.0,0.0,42,0.00,,---,0.00,VWS V15.00,2013-11-30 18:00:00,
2013-11-30 13:05:00,35.6,14.8,30.12,ENE,61,0.0,0.0,42,0.00,,---,0.00,VWS V15.00,2013-11-30 18:05:00,
2013-11-30 13:10:00,35.8,14.9,30.12,SSW,206,8.9,8.9,42,0.00,,---,0.00,VWS V15.00,2013-11-30 18:10:00,
2013-11-30 13:15:00,35.6,14.8,30.12,SSW,212,4.5,4.5,42,0.00,,---,0.00,VWS V15.00,2013-11-30 18:15:00,
2013-11-30 13:20:00,37.0,16.1,30.12,South,191,4.5,4.5,42,0.00,,---,0.00,VWS V15.00,2013-11-30 18:20:00,
2013-11-30 13:25:00,37.0,16.1,30.12,SE,129,0.0,0.0,42,0.00,,---,0.00,VWS V15.00,2013-11-30 18:25:00,
2013-11-30 13:30:00,36.3,15.4,30.12,SE,129,4.5,4.5,42,0.00,,---,0.00,VWS V15.00,2013-11-30 18:30:00,
2013-11-30 13:35:00,36.3,15.4,30.12,ENE,68,0.0,0.0,42,0.00,,---,0.00,VWS V15.00,2013-11-30 18:35:00,
2013-11-30 13:40:00,36.7,15.8,30.12,South,176,5.4,5.4,42,0.00,,---,0.00,VWS V15.00,2013-11-30 18:40:00,
2013-11-30 13:45:00,35.6,14.8,30.12,SW,230,7.2,7.2,42,0.00,,---,0.00,VWS V15.00,2013-11-30 18:45:00,
2013-11-30 13:50:00,35.1,14.3,30.12,WSW,244,7.2,7.2,42,0.00,,---,0.00,VWS V15.00,2013-11-30 18:50:00,
2013-11-30 13:55:00,34.7,14.0,30.12,WSW,238,0.0,0.0,42,0.00,,---,0.00,VWS V15.00,2013-11-30 18:55:00,
2013-11-30 14:00:00,34.7,14.0,30.09,SSW,193,0.0,0.0,42,0.00,,---,0.00,VWS V15.00,2013-11-30 19:00:00,
2013-11-30 14:05:00,34.7,14.0,30.09,SSW,193,0.0,0.0,42,0.00,,---,0.00,VWS V15.00,2013-11-30 19:05:00,
2013-11-30 14:10:00,34.0,13.3,30.09,WSW,255,5.4,5.4,42,0.00,,---,0.00,VWS V15.00,2013-11-30 19:10:00,
2013-11-30 14:15:00,33.6,13.5,30.09,WSW,255,5.4,5.4,43,0.00,,---,0.00,VWS V15.00,2013-11-30 19:15:00,
2013-11-30 14:20:00,33.8,13.1,30.09,WSW,244,6.3,6.3,42,0.00,,---,0.00,VWS V15.00,2013-11-30 19:20:00,
2013-11-30 14:25:00,33.4,13.4,30.09,SSW,193,6.3,6.3,43,0.00,,---,0.00,VWS V15.00,2013-11-30 19:25:00,
2013-11-30 14:30:00,33.3,13.2,30.09,SW,221,10.7,10.7,43,0.00,,---,0.00,VWS V15.00,2013-11-30 19:30:00,
2013-11-30 14:35:00,33.3,13.2,30.09,South,186,5.4,5.4,43,0.00,,---,0.00,VWS V15.00,2013-11-30 19:35:00,
2013-11-30 14:40:00,33.3,13.2,30.09,South,186,0.0,0.0,43,0.00,,---,0.00,VWS V15.00,2013-11-30 19:40:00,
2013-11-30 14:45:00,33.3,13.2,30.09,SSE,160,0.0,0.0,43,0.00,,---,0.00,VWS V15.00,2013-11-30 19:45:00,
2013-11-30 14:50:00,33.3,13.2,30.09,SSE,165,0.0,0.0,43,0.00,,---,0.00,VWS V15.00,2013-11-30 19:50:00,
2013-11-30 14:55:00,33.3,13.2,30.09,WNW,298,0.0,0.0,43,0.00,,---,0.00,VWS V15.00,2013-11-30 19:55:00,
2013-11-30 15:00:00,33.1,13.0,30.09,WNW,298,0.0,0.0,43,0.00,,---,0.00,VWS V15.00,2013-11-30 20:00:00,
2013-11-30 15:05:00,32.9,12.9,30.09,SSE,164,0.0,0.0,43,0.00,,---,0.00,VWS V15.00,2013-11-30 20:05:00,
2013-11-30 15:10:00,32.7,13.7,30.09,SSE,168,5.4,5.4,45,0.00,,---,0.00,VWS V15.00,2013-11-30 20:10:00,
2013-11-30 15:16:00,32.7,13.7,30.09,South,186,0.0,0.0,45,0.00,,---,0.00,VWS V15.00,2013-11-30 20:16:00,
2013-11-30 15:21:00,32.5,13.6,30.09,South,183,0.0,0.0,45,0.00,,---,0.00,VWS V15.00,2013-11-30 20:21:00,
2013-11-30 15:26:00,32.0,13.1,30.09,South,183,0.0,0.0,45,0.00,,---,0.00,VWS V15.00,2013-11-30 20:26:00,
2013-11-30 15:31:00,31.8,14.4,30.09,SSE,166,0.0,0.0,48,0.00,,---,0.00,VWS V15.00,2013-11-30 20:31:00,
2013-11-30 15:36:00,31.8,14.4,30.09,SSE,166,0.0,0.0,48,0.00,,---,0.00,VWS V15.00,2013-11-30 20:36:00,
2013-11-30 15:41:00,31.8,14.4,30.09,SSE,166,0.0,0.0,48,0.00,,---,0.00,VWS V15.00,2013-11-30 20:41:00,
2013-11-30 15:46:00,31.8,14.4,30.09,SSE,166,0.0,0.0,48,0.00,,---,0.00,VWS V15.00,2013-11-30 20:46:00,
2013-11-30 15:51:00,31.1,13.7,30.09,SSE,166,0.0,0.0,48,0.00,,---,0.00,VWS V15.00,2013-11-30 20:51:00,
2013-11-30 15:56:00,30.9,13.6,30.09,SSE,166,0.0,0.0,48,0.00,,---,0.00,VWS V15.00,2013-11-30 20:56:00,
2013-11-30 16:01:00,30.6,13.2,30.06,SSE,166,0.0,0.0,48,0.00,,---,0.00,VWS V15.00,2013-11-30 21:01:00,
2013-11-30 16:06:00,30.6,13.2,30.06,SSE,166,0.0,0.0,48,0.00,,---,0.00,VWS V15.00,2013-11-30 21:06:00,
2013-11-30 16:11:00,30.0,12.7,30.06,SSE,166,0.0,0.0,48,0.00,,---,0.00,VWS V15.00,2013-11-30 21:11:00,
2013-11-30 16:16:00,29.7,12.4,30.06,SSE,166,0.0,0.0,48,0.00,,---,0.00,VWS V15.00,2013-11-30 21:16:00,
2013-11-30 16:21:00,29.3,13.0,30.06,SSE,166,0.0,0.0,50,0.00,,---,0.00,VWS V15.00,2013-11-30 21:21:00,
2013-11-30 16:25:00,29.1,12.8,30.06,SSE,166,0.0,0.0,50,0.00,,---,0.00,VWS V15.00,2013-11-30 21:25:00,
2013-11-30 16:30:00,29.1,12.8,30.06,SSE,166,0.0,0.0,50,0.00,,---,0.00,VWS V15.00,2013-11-30 21:30:00,
2013-11-30 16:35:00,29.1,12.8,30.06,SSE,166,0.0,0.0,50,0.00,,---,0.00,VWS V15.00,2013-11-30 21:35:00,
2013-11-30 16:40:00,28.6,12.8,30.06,SSE,166,0.0,0.0,51,0.00,,---,0.00,VWS V15.00,2013-11-30 21:40:00,
2013-11-30 16:45:00,28.4,12.6,30.06,SSE,166,0.0,0.0,51,0.00,,---,0.00,VWS V15.00,2013-11-30 21:45:00,
2013-11-30 16:50:00,28.4,12.6,30.06,SSE,166,0.0,0.0,51,0.00,,---,0.00,VWS V15.00,2013-11-30 21:50:00,
2013-11-30 16:55:00,28.4,12.6,30.06,SSE,166,0.0,0.0,51,0.00,,---,0.00,VWS V15.00,2013-11-30 21:55:00,
2013-11-30 17:01:00,28.2,12.9,30.06,SSE,166,0.0,0.0,52,0.00,,---,0.00,VWS V15.00,2013-11-30 22:01:00,
2013-11-30 17:06:00,28.2,13.3,30.06,SSE,166,0.0,0.0,53,0.00,,---,0.00,VWS V15.00,2013-11-30 22:06:00,
2013-11-30 17:11:00,28.0,12.7,30.06,SSE,166,0.0,0.0,52,0.00,,---,0.00,VWS V15.00,2013-11-30 22:11:00,
2013-11-30 17:16:00,28.0,12.7,30.06,SSE,166,0.0,0.0,52,0.00,,---,0.00,VWS V15.00,2013-11-30 22:16:00,
2013-11-30 17:21:00,27.9,12.5,30.06,SSE,167,0.0,0.0,52,0.00,,---,0.00,VWS V15.00,2013-11-30 22:21:00,
2013-11-30 17:26:00,28.0,13.1,30.06,SSE,166,0.0,0.0,53,0.00,,---,0.00,VWS V15.00,2013-11-30 22:26:00,
2013-11-30 17:31:00,28.0,13.1,30.06,SSE,166,0.0,0.0,53,0.00,,---,0.00,VWS V15.00,2013-11-30 22:31:00,
2013-11-30 17:36:00,27.9,13.0,30.03,SSE,166,0.0,0.0,53,0.00,,---,0.00,VWS V15.00,2013-11-30 22:36:00,
2013-11-30 17:41:00,27.9,13.0,30.03,SSE,166,0.0,0.0,53,0.00,,---,0.00,VWS V15.00,2013-11-30 22:41:00,
2013-11-30 17:46:00,27.9,13.0,30.03,SSE,166,0.0,0.0,53,0.00,,---,0.00,VWS V15.00,2013-11-30 22:46:00,
2013-11-30 17:51:00,28.2,13.7,30.03,SSE,166,0.0,0.0,54,0.00,,---,0.00,VWS V15.00,2013-11-30 22:51:00,
2013-11-30 17:56:00,28.2,13.7,30.03,SSE,166,0.0,0.0,54,0.00,,---,0.00,VWS V15.00,2013-11-30 22:56:00,
2013-11-30 18:01:00,27.9,13.4,30.03,SSE,166,0.0,0.0,54,0.00,,---,0.00,VWS V15.00,2013-11-30 23:01:00,
2013-11-30 18:06:00,27.9,13.4,30.03,SSE,166,0.0,0.0,54,0.00,,---,0.00,VWS V15.00,2013-11-30 23:06:00,
2013-11-30 18:11:00,27.7,13.6,30.03,SSE,166,0.0,0.0,55,0.00,,---,0.00,VWS V15.00,2013-11-30 23:11:00,
2013-11-30 18:16:00,27.7,13.6,30.03,SSE,166,0.0,0.0,55,0.00,,---,0.00,VWS V15.00,2013-11-30 23:16:00,
2013-11-30 18:21:00,27.7,13.6,30.03,SSE,166,0.0,0.0,55,0.00,,---,0.00,VWS V15.00,2013-11-30 23:21:00,
2013-11-30 18:26:00,27.7,13.6,30.03,SSE,166,0.0,0.0,55,0.00,,---,0.00,VWS V15.00,2013-11-30 23:26:00,
2013-11-30 18:31:00,27.7,13.6,30.03,SSE,166,0.0,0.0,55,0.00,,---,0.00,VWS V15.00,2013-11-30 23:31:00,
2013-11-30 18:36:00,27.9,14.2,30.03,SSE,166,0.0,0.0,56,0.00,,---,0.00,VWS V15.00,2013-11-30 23:36:00,
2013-11-30 18:41:00,27.9,14.2,30.03,SSE,166,0.0,0.0,56,0.00,,---,0.00,VWS V15.00,2013-11-30 23:41:00,
2013-11-30 18:46:00,27.9,14.2,30.03,SSE,164,0.0,0.0,56,0.00,,---,0.00,VWS V15.00,2013-11-30 23:46:00,
2013-11-30 18:51:00,28.0,14.8,30.03,SE,126,0.0,0.0,57,0.00,,---,0.00,VWS V15.00,2013-11-30 23:51:00,
2013-11-30 18:56:00,28.0,14.4,30.00,SE,126,0.0,0.0,56,0.00,,---,0.00,VWS V15.00,2013-11-30 23:56:00,
2013-11-30 19:01:00,27.9,14.2,30.00,SE,126,0.0,0.0,56,0.00,,---,0.00,VWS V15.00,2013-12-01 00:01:00,
2013-11-30 19:06:00,27.7,13.6,30.00,SE,126,0.0,0.0,55,0.00,,---,0.00,VWS V15.00,2013-12-01 00:06:00,
2013-11-30 19:11:00,27.5,13.5,30.00,SE,126,0.0,0.0,55,0.00,,---,0.00,VWS V15.00,2013-12-01 00:11:00,
2013-11-30 19:16:00,27.5,13.9,30.00,SE,126,0.0,0.0,56,0.00,,---,0.00,VWS V15.00,2013-12-01 00:16:00,
2013-11-30 19:21:00,27.3,13.7,30.00,SE,126,0.0,0.0,56,0.00,,---,0.00,VWS V15.00,2013-12-01 00:21:00,
2013-11-30 19:26:00,27.3,14.1,30.00,SE,126,0.0,0.0,57,0.00,,---,0.00,VWS V15.00,2013-12-01 00:26:00,
2013-11-30 19:31:00,27.5,14.3,30.00,SE,126,0.0,0.0,57,0.00,,---,0.00,VWS V15.00,2013-12-01 00:31:00,
2013-11-30 19:36:00,27.5,14.3,30.00,SE,126,0.0,0.0,57,0.00,,---,0.00,VWS V15.00,2013-12-01 00:36:00,
2013-11-30 19:41:00,27.7,15.2,30.00,SE,126,0.0,0.0,59,0.00,,---,0.00,VWS V15.00,2013-12-01 00:41:00,
2013-11-30 19:46:00,27.5,14.7,29.97,SE,126,0.0,0.0,58,0.00,,---,0.00,VWS V15.00,2013-12-01 00:46:00,
2013-11-30 19:51:00,27.5,14.7,29.97,SE,126,0.0,0.0,58,0.00,,---,0.00,VWS V15.00,2013-12-01 00:51:00,
2013-11-30 19:56:00,27.5,15.1,29.97,SE,126,0.0,0.0,59,0.00,,---,0.00,VWS V15.00,2013-12-01 00:56:00,
2013-11-30 20:01:00,27.5,15.1,29.97,SE,126,0.0,0.0,59,0.00,,---,0.00,VWS V15.00,2013-12-01 01:01:00,
2013-11-30 20:06:00,27.7,15.2,29.97,SE,126,0.0,0.0,59,0.00,,---,0.00,VWS V15.00,2013-12-01 01:06:00,
2013-11-30 20:11:00,27.9,15.8,29.97,SE,126,0.0,0.0,60,0.00,,---,0.00,VWS V15.00,2013-12-01 01:11:00,
2013-11-30 20:16:00,28.0,16.3,29.97,SE,126,0.0,0.0,61,0.00,,---,0.00,VWS V15.00,2013-12-01 01:16:00,
2013-11-30 20:21:00,28.2,16.1,29.97,SE,126,0.0,0.0,60,0.00,,---,0.00,VWS V15.00,2013-12-01 01:21:00,
2013-11-30 20:26:00,28.4,15.9,29.97,SE,126,0.0,0.0,59,0.00,,---,0.00,VWS V15.00,2013-12-01 01:26:00,
2013-11-30 20:31:00,28.6,16.1,29.94,SE,126,0.0,0.0,59,0.00,,---,0.00,VWS V15.00,2013-12-01 01:31:00,
2013-11-30 20:36:00,28.6,16.1,29.94,ESE,119,0.0,0.0,59,0.00,,---,0.00,VWS V15.00,2013-12-01 01:36:00,
2013-11-30 20:41:00,28.6,16.1,29.94,ESE,107,0.0,0.0,59,0.00,,---,0.00,VWS V15.00,2013-12-01 01:41:00,
2013-11-30 20:43:00,28.8,16.2,29.94,ESE,107,0.0,0.0,59,0.00,,---,0.00,VWS V15.00,2013-12-01 01:43:00,
2013-11-30 20:48:00,28.8,16.2,29.94,ESE,102,0.0,0.0,59,0.00,,---,0.00,VWS V15.00,2013-12-01 01:48:00,
2013-11-30 20:53:00,29.1,16.6,29.94,ESE,102,0.0,0.0,59,0.00,,---,0.00,VWS V15.00,2013-12-01 01:53:00,
2013-11-30 20:58:00,29.1,16.6,29.94,ESE,102,0.0,0.0,59,0.00,,---,0.00,VWS V15.00,2013-12-01 01:58:00,
2013-11-30 21:03:00,29.3,16.8,29.94,East,101,0.0,0.0,59,0.00,,---,0.00,VWS V15.00,2013-12-01 02:03:00,
2013-11-30 21:08:00,29.3,16.8,29.94,ESE,102,0.0,0.0,59,0.00,,---,0.00,VWS V15.00,2013-12-01 02:08:00,
2013-11-30 21:13:00,29.3,16.8,29.94,ESE,102,0.0,0.0,59,0.00,,---,0.00,VWS V15.00,2013-12-01 02:13:00,
2013-11-30 21:18:00,29.5,17.3,29.94,ESE,102,0.0,0.0,60,0.00,,---,0.00,VWS V15.00,2013-12-01 02:18:00,
2013-11-30 21:23:00,29.5,17.3,29.94,ESE,102,0.0,0.0,60,0.00,,---,0.00,VWS V15.00,2013-12-01 02:23:00,
2013-11-30 21:28:00,29.7,17.5,29.94,ESE,102,0.0,0.0,60,0.00,,---,0.00,VWS V15.00,2013-12-01 02:28:00,
2013-11-30 21:33:00,29.7,17.5,29.94,ESE,102,0.0,0.0,60,0.00,,---,0.00,VWS V15.00,2013-12-01 02:33:00,
2013-11-30 21:38:00,29.7,17.5,29.94,ESE,102,0.0,0.0,60,0.00,,---,0.00,VWS V15.00,2013-12-01 02:38:00,
2013-11-30 21:43:00,29.8,17.3,29.94,ESE,102,0.0,0.0,59,0.00,,---,0.00,VWS V15.00,2013-12-01 02:43:00,
2013-11-30 21:48:00,29.8,17.3,29.91,ESE,102,0.0,0.0,59,0.00,,---,0.00,VWS V15.00,2013-12-01 02:48:00,
2013-11-30 21:53:00,30.0,17.4,29.91,ESE,102,0.0,0.0,59,0.00,,---,0.00,VWS V15.00,2013-12-01 02:53:00,
2013-11-30 21:58:00,30.0,17.0,29.91,ESE,102,0.0,0.0,58,0.00,,---,0.00,VWS V15.00,2013-12-01 02:58:00,
2013-11-30 22:03:00,30.0,17.0,29.91,ESE,102,0.0,0.0,58,0.00,,---,0.00,VWS V15.00,2013-12-01 03:03:00,
2013-11-30 22:08:00,30.0,17.0,29.91,ESE,102,0.0,0.0,58,0.00,,---,0.00,VWS V15.00,2013-12-01 03:08:00,
2013-11-30 22:13:00,30.0,17.0,29.91,ESE,102,0.0,0.0,58,0.00,,---,0.00,VWS V15.00,2013-12-01 03:13:00,
2013-11-30 22:18:00,30.2,17.6,29.91,ESE,102,0.0,0.0,59,0.00,,---,0.00,VWS V15.00,2013-12-01 03:18:00,
2013-11-30 22:23:00,30.2,17.6,29.91,ESE,102,0.0,0.0,59,0.00,,---,0.00,VWS V15.00,2013-12-01 03:23:00,
2013-11-30 22:28:00,30.4,17.8,29.91,East,101,0.0,0.0,59,0.00,,---,0.00,VWS V15.00,2013-12-01 03:28:00,
2013-11-30 22:33:00,30.4,17.8,29.91,East,101,0.0,0.0,59,0.00,,---,0.00,VWS V15.00,2013-12-01 03:33:00,
2013-11-30 22:38:00,30.6,18.3,29.91,East,101,0.0,0.0,60,0.00,,---,0.00,VWS V15.00,2013-12-01 03:38:00,
2013-11-30 22:43:00,30.6,18.3,29.91,East,101,0.0,0.0,60,0.00,,---,0.00,VWS V15.00,2013-12-01 03:43:00,
2013-11-30 22:48:00,30.6,18.3,29.88,East,101,0.0,0.0,60,0.00,,---,0.00,VWS V15.00,2013-12-01 03:48:00,
2013-11-30 22:53:00,30.6,18.3,29.88,ESE,110,0.0,0.0,60,0.00,,---,0.00,VWS V15.00,2013-12-01 03:53:00,
2013-11-30 22:58:00,30.6,18.3,29.88,ESE,111,0.0,0.0,60,0.00,,---,0.00,VWS V15.00,2013-12-01 03:58:00,
2013-11-30 23:03:00,30.6,18.3,29.88,ESE,119,0.0,0.0,60,0.00,,---,0.00,VWS V15.00,2013-12-01 04:03:00,
2013-11-30 23:08:00,30.9,18.3,29.88,ESE,119,0.0,0.0,59,0.00,,---,0.00,VWS V15.00,2013-12-01 04:08:00,
2013-11-30 23:12:00,31.1,17.7,29.88,ESE,119,0.0,0.0,57,0.00,,---,0.00,VWS V15.00,2013-12-01 04:12:00,
2013-11-30 23:17:00,31.1,17.7,29.88,ESE,119,0.0,0.0,57,0.00,,---,0.00,VWS V15.00,2013-12-01 04:17:00,
2013-11-30 23:22:00,31.1,17.7,29.88,ESE,119,0.0,0.0,57,0.00,,---,0.00,VWS V15.00,2013-12-01 04:22:00,
2013-11-30 23:27:00,31.3,17.4,29.88,SE,125,0.0,0.0,56,0.00,,---,0.00,VWS V15.00,2013-12-01 04:27:00,
2013-11-30 23:32:00,31.3,17.4,29.85,SE,139,0.0,0.0,56,0.00,,---,0.00,VWS V15.00,2013-12-01 04:32:00,
2013-11-30 23:37:00,31.5,17.6,29.85,SE,139,0.0,0.0,56,0.00,,---,0.00,VWS V15.00,2013-12-01 04:37:00,
2013-11-30 23:42:00,31.3,17.4,29.85,SE,139,0.0,0.0,56,0.00,,---,0.00,VWS V15.00,2013-12-01 04:42:00,
2013-11-30 23:47:00,31.3,17.4,29.85,SE,139,0.0,0.0,56,0.00,,---,0.00,VWS V15.00,2013-12-01 04:47:00,
2013-11-30 23:52:00,31.1,17.2,29.85,SE,139,0.0,0.0,56,0.00,,---,0.00,VWS V15.00,2013-12-01 04:52:00,
2013-11-30 23:57:00,31.1,17.2,29.85,SE,139,0.0,0.0,56,0.00,,---,0.00,VWS V15.00,2013-12-01 04:57:00,